JOH1427 LESA-LFLX
Flight info
| Callsign | JOH1427 |
|---|---|
| Flight time | 1h 23m |
| Altitude | 41000 |
| Route | ZANKO DCT CEGAM L176 LUSEM DCT OBLOC DCT RAZQI DCT GUSON |
| Aircraft | E55P/M-SBDFGHJ2RWY/LB2 |
Departure
| Time | 2026-04-12 10:26 |
|---|---|
| Airport | Salamanca Airport (LESA) |
Arrival
| Time | 2026-04-12 11:49 |
|---|---|
| Airport | Châteauroux Déols airport (LFLX) |
| Time | Latitude | Longitude | Altitude | Speed | Heading |
|---|---|---|---|---|---|
| 2026-04-12 10:11 | 40.94360 | -5.50167 | 2589 ft | 0 kts | 209° |
| 2026-04-12 10:21 | 40.94359 | -5.50167 | 2589 ft | 0 kts | 213° |
| 2026-04-12 10:22 | 40.94355 | -5.50186 | 2589 ft | 4 kts | 273° |
| 2026-04-12 10:22 | 40.94338 | -5.50234 | 2589 ft | 9 kts | 205° |
| 2026-04-12 10:22 | 40.94283 | -5.50272 | 2590 ft | 9 kts | 208° |
| 2026-04-12 10:22 | 40.94224 | -5.50314 | 2591 ft | 10 kts | 207° |
| 2026-04-12 10:23 | 40.94156 | -5.50360 | 2592 ft | 11 kts | 207° |
| 2026-04-12 10:23 | 40.94084 | -5.50412 | 2592 ft | 11 kts | 218° |
| 2026-04-12 10:23 | 40.94094 | -5.50504 | 2592 ft | 11 kts | 297° |
| 2026-04-12 10:23 | 40.94133 | -5.50601 | 2592 ft | 11 kts | 297° |
| 2026-04-12 10:24 | 40.94167 | -5.50684 | 2592 ft | 9 kts | 298° |
| 2026-04-12 10:24 | 40.94197 | -5.50758 | 2591 ft | 1 kts | 297° |
| 2026-04-12 10:24 | 40.94199 | -5.50764 | 2591 ft | 0 kts | 297° |
| 2026-04-12 10:24 | 40.94215 | -5.50806 | 2591 ft | 9 kts | 296° |
| 2026-04-12 10:25 | 40.94282 | -5.50849 | 2590 ft | 13 kts | 27° |
| 2026-04-12 10:25 | 40.94295 | -5.50840 | 2590 ft | 0 kts | 27° |
| 2026-04-12 10:25 | 40.94297 | -5.50839 | 2590 ft | 0 kts | 27° |
| 2026-04-12 10:25 | 40.94531 | -5.50677 | 2588 ft | 76 kts | 31° |
| 2026-04-12 10:26 | 40.95202 | -5.50202 | 2586 ft | 140 kts | 27° |
| 2026-04-12 10:26 | 40.96189 | -5.49503 | 2798 ft | 174 kts | 26° |
| 2026-04-12 10:26 | 40.97231 | -5.48525 | 3289 ft | 199 kts | 45° |
| 2026-04-12 10:26 | 40.98083 | -5.46904 | 3542 ft | 239 kts | 63° |
| 2026-04-12 10:27 | 40.98962 | -5.44868 | 4127 ft | 261 kts | 57° |
| 2026-04-12 10:27 | 40.99956 | -5.42949 | 5161 ft | 254 kts | 53° |
| 2026-04-12 10:27 | 41.01012 | -5.41106 | 5936 ft | 256 kts | 51° |
| 2026-04-12 10:27 | 41.02124 | -5.39267 | 6695 ft | 260 kts | 50° |
| 2026-04-12 10:28 | 41.03267 | -5.37420 | 7453 ft | 262 kts | 50° |
| 2026-04-12 10:28 | 41.04425 | -5.35545 | 8209 ft | 265 kts | 50° |
| 2026-04-12 10:28 | 41.05611 | -5.33647 | 8950 ft | 268 kts | 50° |
| 2026-04-12 10:28 | 41.06786 | -5.31769 | 9674 ft | 271 kts | 50° |
| 2026-04-12 10:29 | 41.08009 | -5.29823 | 10381 ft | 275 kts | 50° |
| 2026-04-12 10:29 | 41.09214 | -5.27897 | 11081 ft | 278 kts | 49° |
| 2026-04-12 10:29 | 41.10456 | -5.25915 | 11774 ft | 281 kts | 49° |
| 2026-04-12 10:29 | 41.11719 | -5.23895 | 12460 ft | 285 kts | 49° |
| 2026-04-12 10:30 | 41.12974 | -5.21888 | 13111 ft | 289 kts | 49° |
| 2026-04-12 10:30 | 41.14270 | -5.19817 | 13775 ft | 292 kts | 49° |
| 2026-04-12 10:30 | 41.15572 | -5.17734 | 14414 ft | 296 kts | 49° |
| 2026-04-12 10:30 | 41.16885 | -5.15633 | 15058 ft | 299 kts | 49° |
| 2026-04-12 10:31 | 41.18212 | -5.13506 | 15683 ft | 303 kts | 49° |
| 2026-04-12 10:31 | 41.19549 | -5.11360 | 16296 ft | 306 kts | 49° |
| 2026-04-12 10:31 | 41.20921 | -5.09158 | 16891 ft | 309 kts | 49° |
| 2026-04-12 10:31 | 41.22300 | -5.06944 | 17364 ft | 313 kts | 49° |
| 2026-04-12 10:32 | 41.23680 | -5.04725 | 17855 ft | 315 kts | 49° |
| 2026-04-12 10:32 | 41.25074 | -5.02481 | 18340 ft | 318 kts | 49° |
| 2026-04-12 10:32 | 41.26494 | -5.00196 | 18835 ft | 321 kts | 49° |
| 2026-04-12 10:32 | 41.27927 | -4.97888 | 19331 ft | 324 kts | 49° |
| 2026-04-12 10:33 | 41.29356 | -4.95629 | 19804 ft | 326 kts | 47° |
| 2026-04-12 10:33 | 41.30861 | -4.93310 | 20289 ft | 329 kts | 47° |
| 2026-04-12 10:33 | 41.32345 | -4.91023 | 20758 ft | 331 kts | 47° |
| 2026-04-12 10:33 | 41.33844 | -4.88713 | 21222 ft | 334 kts | 47° |
| 2026-04-12 10:34 | 41.35371 | -4.86358 | 21687 ft | 336 kts | 47° |
| 2026-04-12 10:34 | 41.36904 | -4.83991 | 22141 ft | 339 kts | 47° |
| 2026-04-12 10:34 | 41.38432 | -4.81631 | 22590 ft | 341 kts | 47° |
| 2026-04-12 10:34 | 41.39987 | -4.79226 | 23031 ft | 344 kts | 47° |
| 2026-04-12 10:35 | 41.41558 | -4.76797 | 23461 ft | 347 kts | 47° |
| 2026-04-12 10:35 | 41.43109 | -4.74394 | 23879 ft | 349 kts | 47° |
| 2026-04-12 10:35 | 41.44715 | -4.71907 | 24303 ft | 352 kts | 47° |
| 2026-04-12 10:35 | 41.46305 | -4.69440 | 24716 ft | 355 kts | 47° |
| 2026-04-12 10:36 | 41.47903 | -4.66959 | 25121 ft | 357 kts | 47° |
| 2026-04-12 10:36 | 41.49538 | -4.64419 | 25527 ft | 360 kts | 47° |
| 2026-04-12 10:36 | 41.51166 | -4.61888 | 25922 ft | 362 kts | 47° |
| 2026-04-12 10:36 | 41.52797 | -4.59351 | 26313 ft | 365 kts | 47° |
| 2026-04-12 10:37 | 41.54467 | -4.56749 | 26704 ft | 368 kts | 47° |
| 2026-04-12 10:37 | 41.56119 | -4.54174 | 27084 ft | 370 kts | 47° |
| 2026-04-12 10:37 | 41.57797 | -4.51556 | 27462 ft | 373 kts | 47° |
| 2026-04-12 10:37 | 41.59494 | -4.48907 | 27837 ft | 375 kts | 47° |
| 2026-04-12 10:38 | 41.61188 | -4.46258 | 28205 ft | 378 kts | 47° |
| 2026-04-12 10:38 | 41.62889 | -4.43598 | 28569 ft | 380 kts | 47° |
| 2026-04-12 10:38 | 41.64616 | -4.40894 | 28931 ft | 383 kts | 47° |
| 2026-04-12 10:38 | 41.66331 | -4.38206 | 29284 ft | 385 kts | 47° |
| 2026-04-12 10:39 | 41.68064 | -4.35487 | 29633 ft | 388 kts | 47° |
| 2026-04-12 10:39 | 41.69825 | -4.32724 | 29994 ft | 389 kts | 47° |
| 2026-04-12 10:39 | 41.71569 | -4.29982 | 30404 ft | 389 kts | 47° |
| 2026-04-12 10:39 | 41.73328 | -4.27216 | 30813 ft | 389 kts | 47° |
| 2026-04-12 10:40 | 41.75080 | -4.24456 | 31216 ft | 389 kts | 47° |
| 2026-04-12 10:40 | 41.76820 | -4.21714 | 31613 ft | 389 kts | 47° |
| 2026-04-12 10:40 | 41.78561 | -4.18968 | 31997 ft | 389 kts | 47° |
| 2026-04-12 10:40 | 41.80306 | -4.16214 | 32368 ft | 389 kts | 47° |
| 2026-04-12 10:41 | 41.82053 | -4.13453 | 32741 ft | 388 kts | 47° |
| 2026-04-12 10:41 | 41.83798 | -4.10694 | 33099 ft | 388 kts | 47° |
| 2026-04-12 10:41 | 41.85541 | -4.07934 | 33450 ft | 388 kts | 47° |
| 2026-04-12 10:41 | 41.87262 | -4.05207 | 33792 ft | 388 kts | 47° |
| 2026-04-12 10:42 | 41.89003 | -4.02446 | 34125 ft | 388 kts | 47° |
| 2026-04-12 10:42 | 41.90731 | -3.99703 | 34462 ft | 387 kts | 47° |
| 2026-04-12 10:42 | 41.92488 | -3.96912 | 34800 ft | 387 kts | 47° |
| 2026-04-12 10:42 | 41.94201 | -3.94189 | 35117 ft | 386 kts | 47° |
| 2026-04-12 10:43 | 41.97655 | -3.88686 | 35739 ft | 385 kts | 47° |
| 2026-04-12 10:43 | 41.99373 | -3.85948 | 36039 ft | 385 kts | 47° |
| 2026-04-12 10:43 | 42.01100 | -3.83190 | 36329 ft | 384 kts | 47° |
| 2026-04-12 10:44 | 42.02817 | -3.80446 | 36602 ft | 384 kts | 47° |
| 2026-04-12 10:44 | 42.04531 | -3.77707 | 36873 ft | 385 kts | 47° |
| 2026-04-12 10:44 | 42.06244 | -3.74963 | 37147 ft | 385 kts | 47° |
| 2026-04-12 10:44 | 42.07953 | -3.72226 | 37413 ft | 384 kts | 47° |
| 2026-04-12 10:45 | 42.09672 | -3.69469 | 37669 ft | 384 kts | 47° |
| 2026-04-12 10:45 | 42.11393 | -3.66708 | 37916 ft | 384 kts | 47° |
| 2026-04-12 10:45 | 42.13096 | -3.63972 | 38152 ft | 384 kts | 47° |
| 2026-04-12 10:45 | 42.14808 | -3.61218 | 38386 ft | 384 kts | 47° |
| 2026-04-12 10:46 | 42.16524 | -3.58456 | 38610 ft | 384 kts | 47° |
| 2026-04-12 10:46 | 42.18236 | -3.55699 | 38829 ft | 384 kts | 47° |
| 2026-04-12 10:46 | 42.19942 | -3.52948 | 39042 ft | 384 kts | 47° |
| 2026-04-12 10:46 | 42.21669 | -3.50161 | 39250 ft | 384 kts | 47° |
| 2026-04-12 10:47 | 42.23362 | -3.47425 | 39453 ft | 384 kts | 47° |
| 2026-04-12 10:47 | 42.25082 | -3.44643 | 39650 ft | 384 kts | 47° |
| 2026-04-12 10:47 | 42.26779 | -3.41897 | 39841 ft | 384 kts | 47° |
| 2026-04-12 10:47 | 42.28474 | -3.39151 | 40034 ft | 385 kts | 47° |
| 2026-04-12 10:48 | 42.30191 | -3.36368 | 40246 ft | 385 kts | 47° |
| 2026-04-12 10:48 | 42.31903 | -3.33589 | 40449 ft | 384 kts | 48° |
| 2026-04-12 10:48 | 42.33614 | -3.30809 | 40633 ft | 385 kts | 48° |
| 2026-04-12 10:48 | 42.35302 | -3.28064 | 40817 ft | 384 kts | 48° |
| 2026-04-12 10:49 | 42.37018 | -3.25271 | 40983 ft | 385 kts | 48° |
| 2026-04-12 10:49 | 42.38731 | -3.22481 | 41013 ft | 387 kts | 48° |
| 2026-04-12 10:49 | 42.42184 | -3.16848 | 41019 ft | 392 kts | 48° |
| 2026-04-12 10:50 | 42.45654 | -3.11174 | 41020 ft | 397 kts | 48° |
| 2026-04-12 10:50 | 42.49209 | -3.05356 | 41021 ft | 402 kts | 48° |
| 2026-04-12 10:51 | 42.52779 | -2.99498 | 41021 ft | 407 kts | 48° |
| 2026-04-12 10:51 | 42.56392 | -2.93555 | 41022 ft | 412 kts | 48° |
| 2026-04-12 10:52 | 42.60037 | -2.87551 | 41022 ft | 417 kts | 49° |
| 2026-04-12 10:52 | 42.63751 | -2.81417 | 41023 ft | 422 kts | 49° |
| 2026-04-12 10:53 | 42.67490 | -2.75230 | 41024 ft | 427 kts | 49° |
| 2026-04-12 10:53 | 42.71262 | -2.68978 | 41024 ft | 432 kts | 49° |
| 2026-04-12 10:54 | 42.75069 | -2.62650 | 41025 ft | 436 kts | 49° |
| 2026-04-12 10:54 | 42.78927 | -2.56228 | 41025 ft | 441 kts | 49° |
| 2026-04-12 10:55 | 42.82809 | -2.49749 | 41026 ft | 445 kts | 49° |
| 2026-04-12 10:55 | 42.86721 | -2.43207 | 41027 ft | 449 kts | 49° |
| 2026-04-12 10:56 | 42.90662 | -2.36592 | 41026 ft | 453 kts | 48° |
| 2026-04-12 10:56 | 42.94641 | -2.29901 | 41018 ft | 457 kts | 48° |
| 2026-04-12 10:57 | 42.98696 | -2.23168 | 41015 ft | 459 kts | 43° |
| 2026-04-12 10:57 | 43.03360 | -2.17351 | 41019 ft | 458 kts | 35° |
| 2026-04-12 10:58 | 43.08123 | -2.11562 | 41021 ft | 462 kts | 35° |
| 2026-04-12 10:58 | 43.12921 | -2.05657 | 41019 ft | 466 kts | 36° |
| 2026-04-12 10:59 | 43.17702 | -1.99738 | 41020 ft | 469 kts | 36° |
| 2026-04-12 10:59 | 43.22555 | -1.93711 | 41020 ft | 472 kts | 36° |
| 2026-04-12 11:00 | 43.27413 | -1.87662 | 41022 ft | 475 kts | 36° |
| 2026-04-12 11:00 | 43.32406 | -1.81780 | 41021 ft | 471 kts | 27° |
| 2026-04-12 11:01 | 43.37986 | -1.77308 | 41022 ft | 470 kts | 25° |
| 2026-04-12 11:01 | 43.43086 | -1.71508 | 41025 ft | 483 kts | 36° |
| 2026-04-12 11:02 | 43.48040 | -1.65281 | 41025 ft | 483 kts | 35° |
| 2026-04-12 11:02 | 43.53019 | -1.59157 | 41025 ft | 483 kts | 35° |
| 2026-04-12 11:03 | 43.58038 | -1.53010 | 41027 ft | 483 kts | 35° |
| 2026-04-12 11:03 | 43.63053 | -1.46861 | 41028 ft | 483 kts | 34° |
| 2026-04-12 11:04 | 43.68069 | -1.40700 | 41028 ft | 481 kts | 34° |
| 2026-04-12 11:04 | 43.73033 | -1.34587 | 41027 ft | 480 kts | 35° |
| 2026-04-12 11:05 | 43.78004 | -1.28458 | 41016 ft | 478 kts | 35° |
| 2026-04-12 11:05 | 43.82912 | -1.22386 | 41017 ft | 475 kts | 35° |
| 2026-04-12 11:06 | 43.87821 | -1.16303 | 41018 ft | 473 kts | 35° |
| 2026-04-12 11:06 | 43.92712 | -1.10227 | 41019 ft | 471 kts | 36° |
| 2026-04-12 11:07 | 43.97556 | -1.04194 | 41020 ft | 470 kts | 36° |
| 2026-04-12 11:07 | 44.02390 | -0.98163 | 41021 ft | 468 kts | 36° |
| 2026-04-12 11:08 | 44.07203 | -0.92140 | 41021 ft | 467 kts | 36° |
| 2026-04-12 11:08 | 44.12018 | -0.86102 | 41018 ft | 466 kts | 36° |
| 2026-04-12 11:09 | 44.16810 | -0.80082 | 41020 ft | 464 kts | 36° |
| 2026-04-12 11:09 | 44.21574 | -0.74080 | 41019 ft | 463 kts | 36° |
| 2026-04-12 11:10 | 44.26342 | -0.68063 | 41024 ft | 462 kts | 36° |
| 2026-04-12 11:10 | 44.31092 | -0.62051 | 41024 ft | 462 kts | 36° |
| 2026-04-12 11:11 | 44.35812 | -0.56063 | 41024 ft | 461 kts | 36° |
| 2026-04-12 11:11 | 44.40540 | -0.50057 | 41025 ft | 460 kts | 36° |
| 2026-04-12 11:12 | 44.45251 | -0.44053 | 41028 ft | 460 kts | 36° |
| 2026-04-12 11:12 | 44.49976 | -0.38021 | 41026 ft | 460 kts | 35° |
| 2026-04-12 11:13 | 44.54682 | -0.32001 | 41017 ft | 460 kts | 36° |
| 2026-04-12 11:13 | 44.59392 | -0.25955 | 41016 ft | 458 kts | 36° |
| 2026-04-12 11:14 | 44.64066 | -0.19946 | 41016 ft | 457 kts | 36° |
| 2026-04-12 11:14 | 44.68823 | -0.14163 | 41017 ft | 450 kts | 28° |
| 2026-04-12 11:15 | 44.74228 | -0.10040 | 41021 ft | 439 kts | 18° |
| 2026-04-12 11:15 | 44.79650 | -0.06169 | 41018 ft | 440 kts | 19° |
| 2026-04-12 11:16 | 44.85033 | -0.02160 | 41019 ft | 440 kts | 20° |
| 2026-04-12 11:16 | 44.90437 | 0.01918 | 41021 ft | 440 kts | 20° |
| 2026-04-12 11:17 | 44.95777 | 0.05972 | 41021 ft | 440 kts | 20° |
| 2026-04-12 11:17 | 45.01159 | 0.10065 | 41022 ft | 440 kts | 20° |
| 2026-04-12 11:18 | 45.06502 | 0.14142 | 41023 ft | 440 kts | 21° |
| 2026-04-12 11:18 | 45.11881 | 0.18255 | 41021 ft | 440 kts | 21° |
| 2026-04-12 11:19 | 45.17233 | 0.22364 | 41021 ft | 440 kts | 21° |
| 2026-04-12 11:19 | 45.22613 | 0.26500 | 41021 ft | 439 kts | 21° |
| 2026-04-12 11:20 | 45.27957 | 0.30616 | 41022 ft | 439 kts | 21° |
| 2026-04-12 11:20 | 45.33317 | 0.34753 | 41023 ft | 439 kts | 21° |
| 2026-04-12 11:21 | 45.38663 | 0.38886 | 41024 ft | 440 kts | 21° |
| 2026-04-12 11:21 | 45.44001 | 0.43025 | 41024 ft | 440 kts | 21° |
| 2026-04-12 11:22 | 45.49363 | 0.47189 | 41024 ft | 440 kts | 21° |
| 2026-04-12 11:22 | 45.54717 | 0.51357 | 41026 ft | 440 kts | 21° |
| 2026-04-12 11:23 | 45.60083 | 0.55541 | 41026 ft | 441 kts | 21° |
| 2026-04-12 11:23 | 45.65432 | 0.59724 | 40821 ft | 443 kts | 21° |
| 2026-04-12 11:24 | 45.68121 | 0.61833 | 40369 ft | 441 kts | 21° |
| 2026-04-12 11:24 | 45.70770 | 0.63910 | 39911 ft | 439 kts | 21° |
| 2026-04-12 11:24 | 45.73455 | 0.66015 | 39430 ft | 436 kts | 22° |
| 2026-04-12 11:24 | 45.76078 | 0.68079 | 38955 ft | 433 kts | 22° |
| 2026-04-12 11:25 | 45.78695 | 0.70137 | 38481 ft | 430 kts | 22° |
| 2026-04-12 11:25 | 45.81324 | 0.72209 | 38004 ft | 427 kts | 22° |
| 2026-04-12 11:25 | 45.83879 | 0.74222 | 37541 ft | 425 kts | 22° |
| 2026-04-12 11:25 | 45.86449 | 0.76250 | 37075 ft | 422 kts | 22° |
| 2026-04-12 11:26 | 45.89020 | 0.78280 | 36609 ft | 419 kts | 22° |
| 2026-04-12 11:26 | 45.91537 | 0.80271 | 36152 ft | 416 kts | 22° |
| 2026-04-12 11:26 | 45.94061 | 0.82270 | 35694 ft | 412 kts | 22° |
| 2026-04-12 11:26 | 45.96529 | 0.84228 | 35245 ft | 408 kts | 21° |
| 2026-04-12 11:27 | 45.99004 | 0.86190 | 34796 ft | 404 kts | 21° |
| 2026-04-12 11:27 | 46.01431 | 0.88115 | 34356 ft | 400 kts | 21° |
| 2026-04-12 11:27 | 46.03871 | 0.90056 | 33914 ft | 397 kts | 21° |
| 2026-04-12 11:27 | 46.06269 | 0.91964 | 33478 ft | 394 kts | 21° |
| 2026-04-12 11:28 | 46.08629 | 0.93842 | 33049 ft | 391 kts | 21° |
| 2026-04-12 11:28 | 46.10981 | 0.95718 | 32621 ft | 388 kts | 21° |
| 2026-04-12 11:28 | 46.13328 | 0.97592 | 32191 ft | 385 kts | 21° |
| 2026-04-12 11:28 | 46.15655 | 0.99453 | 31766 ft | 382 kts | 21° |
| 2026-04-12 11:29 | 46.17985 | 1.01316 | 31341 ft | 379 kts | 21° |
| 2026-04-12 11:29 | 46.20269 | 1.03146 | 30924 ft | 377 kts | 21° |
| 2026-04-12 11:29 | 46.22531 | 1.04957 | 30512 ft | 374 kts | 20° |
| 2026-04-12 11:29 | 46.24809 | 1.06784 | 30097 ft | 371 kts | 20° |
| 2026-04-12 11:30 | 46.27045 | 1.08579 | 29689 ft | 369 kts | 20° |
| 2026-04-12 11:30 | 46.29266 | 1.10363 | 29284 ft | 366 kts | 20° |
| 2026-04-12 11:30 | 46.31486 | 1.12148 | 28879 ft | 363 kts | 20° |
| 2026-04-12 11:30 | 46.33682 | 1.13915 | 28478 ft | 361 kts | 20° |
| 2026-04-12 11:31 | 46.35843 | 1.15656 | 28084 ft | 358 kts | 20° |
| 2026-04-12 11:31 | 46.37991 | 1.17388 | 27692 ft | 355 kts | 20° |
| 2026-04-12 11:31 | 46.40152 | 1.19132 | 27297 ft | 353 kts | 20° |
| 2026-04-12 11:31 | 46.42266 | 1.20839 | 26911 ft | 350 kts | 19° |
| 2026-04-12 11:32 | 46.44369 | 1.22538 | 26525 ft | 348 kts | 20° |
| 2026-04-12 11:32 | 46.46297 | 1.24826 | 25894 ft | 369 kts | 46° |
| 2026-04-12 11:32 | 46.47381 | 1.28156 | 25306 ft | 378 kts | 74° |
| 2026-04-12 11:32 | 46.47516 | 1.31944 | 24770 ft | 376 kts | 91° |
| 2026-04-12 11:33 | 46.47459 | 1.35725 | 24279 ft | 371 kts | 90° |
| 2026-04-12 11:33 | 46.47435 | 1.39421 | 23812 ft | 365 kts | 89° |
| 2026-04-12 11:33 | 46.47987 | 1.42943 | 23203 ft | 357 kts | 59° |
| 2026-04-12 11:33 | 46.49479 | 1.45613 | 22625 ft | 336 kts | 29° |
| 2026-04-12 11:34 | 46.51510 | 1.46909 | 22045 ft | 310 kts | 0° |
| 2026-04-12 11:34 | 46.53603 | 1.47199 | 21474 ft | 302 kts | 353° |
| 2026-04-12 11:34 | 46.55687 | 1.47253 | 20891 ft | 298 kts | 350° |
| 2026-04-12 11:34 | 46.57753 | 1.47216 | 20309 ft | 296 kts | 349° |
| 2026-04-12 11:35 | 46.59781 | 1.47144 | 19736 ft | 295 kts | 349° |
| 2026-04-12 11:35 | 46.61822 | 1.47055 | 19158 ft | 293 kts | 349° |
| 2026-04-12 11:35 | 46.63834 | 1.46961 | 18586 ft | 292 kts | 349° |
| 2026-04-12 11:35 | 46.65858 | 1.46863 | 18009 ft | 290 kts | 349° |
| 2026-04-12 11:36 | 46.67871 | 1.46764 | 17435 ft | 289 kts | 349° |
| 2026-04-12 11:36 | 46.69860 | 1.46666 | 16865 ft | 287 kts | 349° |
| 2026-04-12 11:36 | 46.71820 | 1.46569 | 16303 ft | 286 kts | 349° |
| 2026-04-12 11:36 | 46.73821 | 1.46541 | 15721 ft | 291 kts | 359° |
| 2026-04-12 11:37 | 46.75720 | 1.47719 | 15098 ft | 309 kts | 27° |
| 2026-04-12 11:37 | 46.77472 | 1.49482 | 14367 ft | 313 kts | 28° |
| 2026-04-12 11:37 | 46.79270 | 1.51309 | 13570 ft | 317 kts | 28° |
| 2026-04-12 11:37 | 46.81073 | 1.53145 | 12756 ft | 321 kts | 28° |
| 2026-04-12 11:38 | 46.82907 | 1.55013 | 11934 ft | 323 kts | 29° |
| 2026-04-12 11:38 | 46.84724 | 1.56866 | 11121 ft | 323 kts | 29° |
| 2026-04-12 11:38 | 46.86572 | 1.58751 | 10297 ft | 324 kts | 30° |
| 2026-04-12 11:38 | 46.88408 | 1.60625 | 9518 ft | 323 kts | 30° |
| 2026-04-12 11:39 | 46.90191 | 1.62450 | 9019 ft | 313 kts | 30° |
| 2026-04-12 11:39 | 46.91955 | 1.64255 | 8485 ft | 306 kts | 30° |
| 2026-04-12 11:39 | 46.93679 | 1.66018 | 7915 ft | 302 kts | 31° |
| 2026-04-12 11:39 | 46.95404 | 1.67784 | 7331 ft | 299 kts | 32° |
| 2026-04-12 11:40 | 46.97076 | 1.69498 | 6759 ft | 296 kts | 32° |
| 2026-04-12 11:40 | 46.98754 | 1.71219 | 6072 ft | 298 kts | 32° |
| 2026-04-12 11:40 | 47.00467 | 1.72975 | 5266 ft | 303 kts | 33° |
| 2026-04-12 11:40 | 47.02176 | 1.74732 | 4511 ft | 304 kts | 33° |
| 2026-04-12 11:41 | 47.03891 | 1.76496 | 3814 ft | 303 kts | 33° |
| 2026-04-12 11:41 | 47.05592 | 1.78272 | 3233 ft | 297 kts | 37° |
| 2026-04-12 11:41 | 47.06730 | 1.80635 | 2958 ft | 270 kts | 70° |
| 2026-04-12 11:41 | 47.07348 | 1.82975 | 2921 ft | 235 kts | 71° |
| 2026-04-12 11:42 | 47.07928 | 1.85234 | 2921 ft | 238 kts | 71° |
| 2026-04-12 11:42 | 47.08514 | 1.87509 | 2919 ft | 238 kts | 71° |
| 2026-04-12 11:42 | 47.08780 | 1.89826 | 2919 ft | 229 kts | 105° |
| 2026-04-12 11:43 | 47.06694 | 1.92228 | 2926 ft | 192 kts | 194° |
| 2026-04-12 11:43 | 47.05587 | 1.91414 | 2921 ft | 172 kts | 214° |
| 2026-04-12 11:43 | 47.04598 | 1.90516 | 2942 ft | 157 kts | 215° |
| 2026-04-12 11:43 | 47.03719 | 1.89699 | 2971 ft | 143 kts | 215° |
| 2026-04-12 11:44 | 47.02899 | 1.88934 | 2920 ft | 136 kts | 216° |
| 2026-04-12 11:44 | 47.02108 | 1.88190 | 2916 ft | 131 kts | 216° |
| 2026-04-12 11:44 | 47.01357 | 1.87481 | 2916 ft | 128 kts | 216° |
| 2026-04-12 11:44 | 47.00601 | 1.86764 | 2918 ft | 128 kts | 216° |
| 2026-04-12 11:45 | 46.99853 | 1.86053 | 2919 ft | 128 kts | 216° |
| 2026-04-12 11:45 | 46.99101 | 1.85336 | 2919 ft | 129 kts | 216° |
| 2026-04-12 11:45 | 46.98354 | 1.84623 | 2919 ft | 130 kts | 216° |
| 2026-04-12 11:45 | 46.97588 | 1.83890 | 2826 ft | 134 kts | 216° |
| 2026-04-12 11:46 | 46.96798 | 1.83133 | 2669 ft | 136 kts | 216° |
| 2026-04-12 11:46 | 46.96004 | 1.82373 | 2500 ft | 137 kts | 216° |
| 2026-04-12 11:46 | 46.95199 | 1.81602 | 2321 ft | 138 kts | 216° |
| 2026-04-12 11:46 | 46.94393 | 1.80829 | 2138 ft | 139 kts | 216° |
| 2026-04-12 11:47 | 46.93591 | 1.80061 | 1953 ft | 139 kts | 216° |
| 2026-04-12 11:47 | 46.92798 | 1.79302 | 1768 ft | 130 kts | 215° |
| 2026-04-12 11:47 | 46.92075 | 1.78610 | 1594 ft | 120 kts | 216° |
| 2026-04-12 11:47 | 46.91390 | 1.77955 | 1433 ft | 115 kts | 216° |
| 2026-04-12 11:48 | 46.90720 | 1.77312 | 1283 ft | 117 kts | 215° |
| 2026-04-12 11:48 | 46.90036 | 1.76659 | 1124 ft | 117 kts | 215° |
| 2026-04-12 11:48 | 46.89358 | 1.76010 | 966 ft | 114 kts | 215° |
| 2026-04-12 11:48 | 46.88715 | 1.75395 | 818 ft | 109 kts | 215° |
| 2026-04-12 11:49 | 46.88098 | 1.74809 | 673 ft | 104 kts | 216° |
| 2026-04-12 11:49 | 46.87511 | 1.74247 | 543 ft | 96 kts | 216° |
| 2026-04-12 11:49 | 46.87007 | 1.73765 | 515 ft | 77 kts | 214° |
| 2026-04-12 11:49 | 46.86660 | 1.73422 | 515 ft | 44 kts | 215° |
| 2026-04-12 11:50 | 46.86405 | 1.73176 | 512 ft | 42 kts | 213° |
| 2026-04-12 11:50 | 46.86167 | 1.72950 | 512 ft | 39 kts | 212° |
| 2026-04-12 11:50 | 46.86000 | 1.72789 | 512 ft | 20 kts | 227° |
| 2026-04-12 11:50 | 46.86016 | 1.72618 | 513 ft | 16 kts | 303° |
| 2026-04-12 11:51 | 46.86057 | 1.72495 | 514 ft | 11 kts | 266° |
| 2026-04-12 11:51 | 46.86024 | 1.72398 | 515 ft | 10 kts | 262° |
| 2026-04-12 11:51 | 46.86034 | 1.72287 | 515 ft | 11 kts | 279° |
| 2026-04-12 11:51 | 46.86065 | 1.72243 | 515 ft | 3 kts | 32° |